<?xml version="1.0"?>
<gpx xmlns="http://www.topografix.com/GPX/1/1" xmlns:xsi="http://www.w3.org/2001/XMLSchema-instance" xmlns:wptx1="http://www.garmin.com/xmlschemas/WaypointExtension/v1" xmlns:gpxtrx="http://www.garmin.com/xmlschemas/GpxExtensions/v3" xmlns:gpxtpx="http://www.garmin.com/xmlschemas/TrackPointExtension/v1" xmlns:gpxx="http://www.garmin.com/xmlschemas/GpxExtensions/v3" xmlns:trp="http://www.garmin.com/xmlschemas/TripExtensions/v1" xmlns:adv="http://www.garmin.com/xmlschemas/AdventuresExtensions/v1" xmlns:prs="http://www.garmin.com/xmlschemas/PressureExtension/v1" xmlns:tmd="http://www.garmin.com/xmlschemas/TripMetaDataExtensions/v1" xmlns:vptm="http://www.garmin.com/xmlschemas/ViaPointTransportationModeExtensions/v1" xmlns:ctx="http://www.garmin.com/xmlschemas/CreationTimeExtension/v1" xmlns:gpxacc="http://www.garmin.com/xmlschemas/AccelerationExtension/v1" xmlns:gpxpx="http://www.garmin.com/xmlschemas/PowerExtension/v1" xmlns:vidx1="http://www.garmin.com/xmlschemas/VideoExtension/v1" creator="Garmin Desktop App" version="1.1" xsi:schemaLocation="http://www.topografix.com/GPX/1/1 http://www.topografix.com/GPX/1/1/gpx.xsd http://www.garmin.com/xmlschemas/WaypointExtension/v1 http://www8.garmin.com/xmlschemas/WaypointExtensionv1.xsd http://www.garmin.com/xmlschemas/TrackPointExtension/v1 http://www.garmin.com/xmlschemas/TrackPointExtensionv1.xsd http://www.garmin.com/xmlschemas/GpxExtensions/v3 http://www8.garmin.com/xmlschemas/GpxExtensionsv3.xsd http://www.garmin.com/xmlschemas/ActivityExtension/v1 http://www8.garmin.com/xmlschemas/ActivityExtensionv1.xsd http://www.garmin.com/xmlschemas/AdventuresExtensions/v1 http://www8.garmin.com/xmlschemas/AdventuresExtensionv1.xsd http://www.garmin.com/xmlschemas/PressureExtension/v1 http://www.garmin.com/xmlschemas/PressureExtensionv1.xsd http://www.garmin.com/xmlschemas/TripExtensions/v1 http://www.garmin.com/xmlschemas/TripExtensionsv1.xsd http://www.garmin.com/xmlschemas/TripMetaDataExtensions/v1 http://www.garmin.com/xmlschemas/TripMetaDataExtensionsv1.xsd http://www.garmin.com/xmlschemas/ViaPointTransportationModeExtensions/v1 http://www.garmin.com/xmlschemas/ViaPointTransportationModeExtensionsv1.xsd http://www.garmin.com/xmlschemas/CreationTimeExtension/v1 http://www.garmin.com/xmlschemas/CreationTimeExtensionsv1.xsd http://www.garmin.com/xmlschemas/AccelerationExtension/v1 http://www.garmin.com/xmlschemas/AccelerationExtensionv1.xsd http://www.garmin.com/xmlschemas/PowerExtension/v1 http://www.garmin.com/xmlschemas/PowerExtensionv1.xsd http://www.garmin.com/xmlschemas/VideoExtension/v1 http://www.garmin.com/xmlschemas/VideoExtensionv1.xsd">

  <metadata>
    <link href="http://www.garmin.com">
      <text>Garmin International</text>
    </link>
    <time>2018-02-26T07:04:34Z</time>
    <bounds maxlat="15.036414032801986" maxlon="100.875398833304644" minlat="14.993237759917974" minlon="100.839846068993211"/>
  </metadata>

  <wpt lat="15.007141241803765" lon="100.849131792783737">
    <ele>135.911010699999991</ele>
    <time>2018-02-26T06:57:36Z</time>
    <name>Narai Hill</name>
    <cmt>23-FEB-13 13:01:12</cmt>
    <desc>23-FEB-13 13:01:12</desc>
    <sym>Lodging</sym>
    <type>user</type>
    <extensions>
      <gpxx:WaypointExtension>
        <gpxx:DisplayMode>SymbolAndName</gpxx:DisplayMode>
      </gpxx:WaypointExtension>
      <wptx1:WaypointExtension>
        <wptx1:DisplayMode>SymbolAndName</wptx1:DisplayMode>
      </wptx1:WaypointExtension>
      <ctx:CreationTimeExtension>
        <ctx:CreationTime>2018-02-26T06:57:36Z</ctx:CreationTime>
      </ctx:CreationTimeExtension>
    </extensions>
  </wpt>

  <wpt lat="15.016273241490126" lon="100.861475402489305">
    <ele>82</ele>
    <time>2018-02-26T06:57:36Z</time>
    <name>Water Sat/Sun</name>
    <cmt>23-FEB-14 10:57:56</cmt>
    <desc>23-FEB-14 10:57:56</desc>
    <sym>Drinking Water</sym>
    <type>user</type>
    <extensions>
      <gpxx:WaypointExtension>
        <gpxx:DisplayMode>SymbolOnly</gpxx:DisplayMode>
      </gpxx:WaypointExtension>
      <wptx1:WaypointExtension>
        <wptx1:DisplayMode>SymbolOnly</wptx1:DisplayMode>
      </wptx1:WaypointExtension>
      <ctx:CreationTimeExtension>
        <ctx:CreationTime>2018-02-26T06:57:36Z</ctx:CreationTime>
      </ctx:CreationTimeExtension>
    </extensions>
  </wpt>

  <trk>
    <name>Shortcut</name>
    <extensions>
      <gpxx:TrackExtension>
        <gpxx:DisplayColor>DarkRed</gpxx:DisplayColor>
      </gpxx:TrackExtension>
    </extensions>
    <trkseg>
      <trkpt lat="15.020125228911638" lon="100.856917658820748">
        <ele>84.252685499999998</ele>
        <time>2014-02-23T04:05:46Z</time>
      </trkpt>
      <trkpt lat="15.019473619759083" lon="100.857407078146935">
        <ele>83.291381799999996</ele>
        <time>2014-02-23T04:06:03Z</time>
      </trkpt>
      <trkpt lat="15.018620677292347" lon="100.858051059767604">
        <ele>83.771972700000006</ele>
        <time>2014-02-23T04:06:24Z</time>
      </trkpt>
      <trkpt lat="15.017685927450657" lon="100.858758073300123">
        <ele>85.694580099999996</ele>
        <time>2014-02-23T04:06:48Z</time>
      </trkpt>
      <trkpt lat="15.017550392076373" lon="100.858853794634342">
        <ele>85.694580099999996</ele>
        <time>2014-02-23T04:06:52Z</time>
      </trkpt>
      <trkpt lat="15.017422735691071" lon="100.858892519026995">
        <ele>85.694580099999996</ele>
        <time>2014-02-23T04:06:55Z</time>
      </trkpt>
      <trkpt lat="15.017332881689072" lon="100.858927639201283">
        <ele>85.694580099999996</ele>
        <time>2014-02-23T04:06:57Z</time>
      </trkpt>
      <trkpt lat="15.016873134300113" lon="100.859218072146177">
        <ele>85.694580099999996</ele>
        <time>2014-02-23T04:07:09Z</time>
      </trkpt>
      <trkpt lat="15.016729971393943" lon="100.859276410192251">
        <ele>85.694580099999996</ele>
        <time>2014-02-23T04:07:13Z</time>
      </trkpt>
      <trkpt lat="15.016643889248371" lon="100.859025958925486">
        <ele>85.213989299999994</ele>
        <time>2014-02-23T04:07:23Z</time>
      </trkpt>
      <trkpt lat="15.01696097664535" lon="100.858174189925194">
        <ele>83.771972700000006</ele>
        <time>2014-02-23T04:07:40Z</time>
      </trkpt>
      <trkpt lat="15.017326679080725" lon="100.857189064845443">
        <ele>84.252685499999998</ele>
        <time>2014-02-23T04:07:59Z</time>
      </trkpt>
      <trkpt lat="15.017654495313764" lon="100.85620435886085">
        <ele>83.291381799999996</ele>
        <time>2014-02-23T04:08:18Z</time>
      </trkpt>
      <trkpt lat="15.017946185544133" lon="100.855257203802466">
        <ele>84.733398399999999</ele>
        <time>2014-02-23T04:08:38Z</time>
      </trkpt>
      <trkpt lat="15.018335441127419" lon="100.854395963251591">
        <ele>84.733398399999999</ele>
        <time>2014-02-23T04:08:59Z</time>
      </trkpt>
      <trkpt lat="15.018462426960468" lon="100.853977622464299">
        <ele>84.733398399999999</ele>
        <time>2014-02-23T04:09:07Z</time>
      </trkpt>
      <trkpt lat="15.018862998113036" lon="100.85277121514082">
        <ele>83.291381799999996</ele>
        <time>2014-02-23T04:09:28Z</time>
      </trkpt>
      <trkpt lat="15.019149910658598" lon="100.85183504037559">
        <ele>85.694580099999996</ele>
        <time>2014-02-23T04:09:47Z</time>
      </trkpt>
      <trkpt lat="15.019304640591145" lon="100.851290300488472">
        <ele>89.059326200000001</ele>
        <time>2014-02-23T04:10:07Z</time>
      </trkpt>
      <trkpt lat="15.019226688891649" lon="100.850683366879821">
        <ele>89.539917000000003</ele>
        <time>2014-02-23T04:10:26Z</time>
      </trkpt>
      <trkpt lat="15.019128285348415" lon="100.85005153901875">
        <ele>90.501342800000003</ele>
        <time>2014-02-23T04:10:43Z</time>
      </trkpt>
      <trkpt lat="15.019020661711693" lon="100.849365061149001">
        <ele>91.943237300000007</ele>
        <time>2014-02-23T04:11:01Z</time>
      </trkpt>
      <trkpt lat="15.018891664221883" lon="100.849322564899921">
        <ele>92.423950199999993</ele>
        <time>2014-02-23T04:11:05Z</time>
      </trkpt>
      <trkpt lat="15.018265703693032" lon="100.849329940974712">
        <ele>93.865844699999997</ele>
        <time>2014-02-23T04:11:21Z</time>
      </trkpt>
      <trkpt lat="15.017441594973207" lon="100.849328180775046">
        <ele>95.788452100000001</ele>
        <time>2014-02-23T04:11:42Z</time>
      </trkpt>
      <trkpt lat="15.016804402694106" lon="100.849372604861856">
        <ele>97.711181600000003</ele>
        <time>2014-02-23T04:11:58Z</time>
      </trkpt>
      <trkpt lat="15.016679260879755" lon="100.849375035613775">
        <ele>98.191894500000004</ele>
        <time>2014-02-23T04:12:01Z</time>
      </trkpt>
      <trkpt lat="15.01652218401432" lon="100.849312925711274">
        <ele>98.672485399999999</ele>
        <time>2014-02-23T04:12:05Z</time>
      </trkpt>
      <trkpt lat="15.016421098262072" lon="100.849164566025138">
        <ele>98.672485399999999</ele>
        <time>2014-02-23T04:12:09Z</time>
      </trkpt>
      <trkpt lat="15.016318336129189" lon="100.848382534459233">
        <ele>99.153076200000001</ele>
        <time>2014-02-23T04:12:26Z</time>
      </trkpt>
      <trkpt lat="15.016329400241375" lon="100.8483359310776">
        <ele>99.153076200000001</ele>
        <time>2014-02-23T04:12:27Z</time>
      </trkpt>
      <trkpt lat="15.016370723024011" lon="100.848262337967753">
        <ele>98.672485399999999</ele>
        <time>2014-02-23T04:12:29Z</time>
      </trkpt>
      <trkpt lat="15.016532158479095" lon="100.848091011866927">
        <ele>98.672485399999999</ele>
        <time>2014-02-23T04:12:34Z</time>
      </trkpt>
      <trkpt lat="15.017932439222932" lon="100.847598072141409">
        <ele>100.595092800000003</ele>
        <time>2014-02-23T04:13:03Z</time>
      </trkpt>
      <trkpt lat="15.018825614824891" lon="100.847159195691347">
        <ele>100.114502000000002</ele>
        <time>2014-02-23T04:13:21Z</time>
      </trkpt>
      <trkpt lat="15.018863081932068" lon="100.847113262861967">
        <ele>100.114502000000002</ele>
        <time>2014-02-23T04:13:22Z</time>
      </trkpt>
      <trkpt lat="15.018988475203514" lon="100.846847891807556">
        <ele>99.633789100000001</ele>
        <time>2014-02-23T04:13:27Z</time>
      </trkpt>
      <trkpt lat="15.019153682515025" lon="100.845938706770539">
        <ele>98.672485399999999</ele>
        <time>2014-02-23T04:13:44Z</time>
      </trkpt>
      <trkpt lat="15.019201124086976" lon="100.84502792917192">
        <ele>98.191894500000004</ele>
        <time>2014-02-23T04:14:01Z</time>
      </trkpt>
      <trkpt lat="15.019109509885311" lon="100.844728862866759">
        <ele>98.191894500000004</ele>
        <time>2014-02-23T04:14:07Z</time>
      </trkpt>
      <trkpt lat="15.01860810443759" lon="100.844026207923889">
        <ele>98.191894500000004</ele>
        <time>2014-02-23T04:14:24Z</time>
      </trkpt>
      <trkpt lat="15.018172580748796" lon="100.84343746304512">
        <ele>98.672485399999999</ele>
        <time>2014-02-23T04:14:41Z</time>
      </trkpt>
      <trkpt lat="15.017962111160159" lon="100.843107216060162">
        <ele>98.672485399999999</ele>
        <time>2014-02-23T04:14:55Z</time>
      </trkpt>
      <trkpt lat="15.017874771729112" lon="100.842735059559345">
        <ele>102.998290999999995</ele>
        <time>2014-02-23T04:15:12Z</time>
      </trkpt>
    </trkseg>
  </trk>

  <trk>
    <name>Sunday 002</name>
    <extensions>
      <gpxx:TrackExtension>
        <gpxx:DisplayColor>Green</gpxx:DisplayColor>
      </gpxx:TrackExtension>
    </extensions>
    <trkseg>
      <trkpt lat="15.007501663640141" lon="100.848007528111339">
        <ele>153.948364300000009</ele>
        <time>2014-02-23T02:36:23Z</time>
      </trkpt>
      <trkpt lat="15.007471907883883" lon="100.848100399598479">
        <ele>142.893066400000009</ele>
        <time>2014-02-23T02:37:02Z</time>
      </trkpt>
      <trkpt lat="15.007484816014767" lon="100.848053209483624">
        <ele>132.799316400000009</ele>
        <time>2014-02-23T02:38:12Z</time>
      </trkpt>
      <trkpt lat="15.007481463253498" lon="100.848021022975445">
        <ele>127.992553700000002</ele>
        <time>2014-02-23T02:38:22Z</time>
      </trkpt>
      <trkpt lat="15.007401080802083" lon="100.84816393442452">
        <ele>128.473388699999987</ele>
        <time>2014-02-23T02:38:28Z</time>
      </trkpt>
      <trkpt lat="15.007330421358347" lon="100.848177513107657">
        <ele>129.434692399999989</ele>
        <time>2014-02-23T02:38:31Z</time>
      </trkpt>
      <trkpt lat="15.007321704179049" lon="100.848240964114666">
        <ele>127.992553700000002</ele>
        <time>2014-02-23T02:38:35Z</time>
      </trkpt>
      <trkpt lat="15.007603839039803" lon="100.848425030708313">
        <ele>129.434692399999989</ele>
        <time>2014-02-23T02:38:48Z</time>
      </trkpt>
      <trkpt lat="15.007879436016083" lon="100.848668273538351">
        <ele>129.434692399999989</ele>
        <time>2014-02-23T02:39:02Z</time>
      </trkpt>
      <trkpt lat="15.007825624197721" lon="100.848877737298608">
        <ele>129.434692399999989</ele>
        <time>2014-02-23T02:39:14Z</time>
      </trkpt>
      <trkpt lat="15.007627392187715" lon="100.849122237414122">
        <ele>133.760498000000013</ele>
        <time>2014-02-23T02:39:32Z</time>
      </trkpt>
      <trkpt lat="15.00726068392396" lon="100.849164063110948">
        <ele>136.644653299999987</ele>
        <time>2014-02-23T02:39:50Z</time>
      </trkpt>
      <trkpt lat="15.007233778014779" lon="100.849115280434489">
        <ele>138.567260699999991</ele>
        <time>2014-02-23T02:40:02Z</time>
      </trkpt>
      <trkpt lat="15.007208129391074" lon="100.849171774461865">
        <ele>140.009155300000003</ele>
        <time>2014-02-23T03:02:03Z</time>
      </trkpt>
      <trkpt lat="15.007348107174039" lon="100.849210917949677">
        <ele>140.009155300000003</ele>
        <time>2014-02-23T03:02:11Z</time>
      </trkpt>
      <trkpt lat="15.007272334769368" lon="100.848948396742344">
        <ele>138.567260699999991</ele>
        <time>2014-02-23T03:02:19Z</time>
      </trkpt>
      <trkpt lat="15.006965808570385" lon="100.849040513858199">
        <ele>138.567260699999991</ele>
        <time>2014-02-23T03:02:26Z</time>
      </trkpt>
      <trkpt lat="15.006834715604782" lon="100.849185520783067">
        <ele>138.567260699999991</ele>
        <time>2014-02-23T03:02:30Z</time>
      </trkpt>
      <trkpt lat="15.006626592949033" lon="100.849269172176719">
        <ele>138.086547899999999</ele>
        <time>2014-02-23T03:02:35Z</time>
      </trkpt>
      <trkpt lat="15.006191236898303" lon="100.849226005375385">
        <ele>139.047851600000001</ele>
        <time>2014-02-23T03:02:48Z</time>
      </trkpt>
      <trkpt lat="15.005870964378119" lon="100.849198764190078">
        <ele>140.970459000000005</ele>
        <time>2014-02-23T03:03:03Z</time>
      </trkpt>
      <trkpt lat="15.005469135940075" lon="100.849274871870875">
        <ele>141.451049799999993</ele>
        <time>2014-02-23T03:03:22Z</time>
      </trkpt>
      <trkpt lat="15.005167219787836" lon="100.849354416131973">
        <ele>145.296386699999999</ele>
        <time>2014-02-23T03:03:39Z</time>
      </trkpt>
      <trkpt lat="15.004875361919403" lon="100.849359780550003">
        <ele>149.141601600000001</ele>
        <time>2014-02-23T03:03:59Z</time>
      </trkpt>
      <trkpt lat="15.004610661417246" lon="100.849329605698586">
        <ele>152.025756800000011</ele>
        <time>2014-02-23T03:04:16Z</time>
      </trkpt>
      <trkpt lat="15.00426490791142" lon="100.849234135821462">
        <ele>155.390258799999998</ele>
        <time>2014-02-23T03:04:36Z</time>
      </trkpt>
      <trkpt lat="15.003903899341822" lon="100.849099270999432">
        <ele>160.677490199999994</ele>
        <time>2014-02-23T03:04:56Z</time>
      </trkpt>
      <trkpt lat="15.003540962934494" lon="100.849114861339331">
        <ele>162.600097699999992</ele>
        <time>2014-02-23T03:05:16Z</time>
      </trkpt>
      <trkpt lat="15.00312203541398" lon="100.849204463884234">
        <ele>164.042114300000009</ele>
        <time>2014-02-23T03:05:38Z</time>
      </trkpt>
      <trkpt lat="15.00286647118628" lon="100.849293479695916">
        <ele>166.4453125</ele>
        <time>2014-02-23T03:05:53Z</time>
      </trkpt>
      <trkpt lat="15.002503283321857" lon="100.849367491900921">
        <ele>168.848754899999989</ele>
        <time>2014-02-23T03:06:08Z</time>
      </trkpt>
      <trkpt lat="15.002236319705844" lon="100.849595731124282">
        <ele>168.848754899999989</ele>
        <time>2014-02-23T03:06:24Z</time>
      </trkpt>
      <trkpt lat="15.002524321898818" lon="100.850062938407063">
        <ele>166.4453125</ele>
        <time>2014-02-23T03:06:35Z</time>
      </trkpt>
      <trkpt lat="15.002791536971927" lon="100.850886628031731">
        <ele>159.235473600000006</ele>
        <time>2014-02-23T03:06:48Z</time>
      </trkpt>
      <trkpt lat="15.003153719007969" lon="100.852213064208627">
        <ele>152.025756800000011</ele>
        <time>2014-02-23T03:07:05Z</time>
      </trkpt>
      <trkpt lat="15.003231503069401" lon="100.852548591792583">
        <ele>149.622314499999987</ele>
        <time>2014-02-23T03:07:10Z</time>
      </trkpt>
      <trkpt lat="15.003498299047351" lon="100.852745063602924">
        <ele>145.777099600000014</ele>
        <time>2014-02-23T03:07:15Z</time>
      </trkpt>
      <trkpt lat="15.004931520670652" lon="100.853149071335793">
        <ele>134.721923800000013</ele>
        <time>2014-02-23T03:07:32Z</time>
      </trkpt>
      <trkpt lat="15.005675498396158" lon="100.853905286639929">
        <ele>125.589355499999996</ele>
        <time>2014-02-23T03:07:44Z</time>
      </trkpt>
      <trkpt lat="15.006510335952044" lon="100.854692934080958">
        <ele>118.379394500000004</ele>
        <time>2014-02-23T03:07:59Z</time>
      </trkpt>
      <trkpt lat="15.007140822708607" lon="100.855125021189451">
        <ele>115.495605499999996</ele>
        <time>2014-02-23T03:08:13Z</time>
      </trkpt>
      <trkpt lat="15.007168063893914" lon="100.855198865756392">
        <ele>115.014892599999996</ele>
        <time>2014-02-23T03:08:23Z</time>
      </trkpt>
      <trkpt lat="15.007149958983064" lon="100.855223089456558">
        <ele>116.4567871</ele>
        <time>2014-02-23T03:08:34Z</time>
      </trkpt>
      <trkpt lat="15.007092794403434" lon="100.855319481343031">
        <ele>116.9375</ele>
        <time>2014-02-23T03:08:40Z</time>
      </trkpt>
      <trkpt lat="15.006667580455542" lon="100.855808733031154">
        <ele>119.340820300000004</ele>
        <time>2014-02-23T03:09:00Z</time>
      </trkpt>
      <trkpt lat="15.006316294893622" lon="100.856326818466187">
        <ele>119.821411100000006</ele>
        <time>2014-02-23T03:09:21Z</time>
      </trkpt>
      <trkpt lat="15.005838358774781" lon="100.856955293565989">
        <ele>117.898803700000002</ele>
        <time>2014-02-23T03:09:41Z</time>
      </trkpt>
      <trkpt lat="15.005801897495985" lon="100.85698907263577">
        <ele>118.379394500000004</ele>
        <time>2014-02-23T03:09:43Z</time>
      </trkpt>
      <trkpt lat="15.005734590813518" lon="100.8570237737149">
        <ele>116.9375</ele>
        <time>2014-02-23T03:09:53Z</time>
      </trkpt>
      <trkpt lat="15.005654459819198" lon="100.857108095660806">
        <ele>117.4182129</ele>
        <time>2014-02-23T03:10:07Z</time>
      </trkpt>
      <trkpt lat="15.005653789266944" lon="100.857125027105212">
        <ele>117.4182129</ele>
        <time>2014-02-23T03:10:09Z</time>
      </trkpt>
      <trkpt lat="15.005586817860603" lon="100.857291575521231">
        <ele>117.4182129</ele>
        <time>2014-02-23T03:10:15Z</time>
      </trkpt>
      <trkpt lat="15.00508189201355" lon="100.858035134151578">
        <ele>114.053588899999994</ele>
        <time>2014-02-23T03:10:31Z</time>
      </trkpt>
      <trkpt lat="15.004522735252976" lon="100.858846167102456">
        <ele>112.611572300000006</ele>
        <time>2014-02-23T03:10:44Z</time>
      </trkpt>
      <trkpt lat="15.00429323874414" lon="100.859199883416295">
        <ele>113.092285200000006</ele>
        <time>2014-02-23T03:10:55Z</time>
      </trkpt>
      <trkpt lat="15.004072124138474" lon="100.859569860622287">
        <ele>113.572997999999998</ele>
        <time>2014-02-23T03:11:09Z</time>
      </trkpt>
      <trkpt lat="15.003927117213607" lon="100.859889797866344">
        <ele>113.572997999999998</ele>
        <time>2014-02-23T03:11:19Z</time>
      </trkpt>
      <trkpt lat="15.003480026498437" lon="100.860712816938758">
        <ele>115.495605499999996</ele>
        <time>2014-02-23T03:11:43Z</time>
      </trkpt>
      <trkpt lat="15.003214487805963" lon="100.861342716962099">
        <ele>117.4182129</ele>
        <time>2014-02-23T03:12:01Z</time>
      </trkpt>
      <trkpt lat="15.003099236637354" lon="100.861654439941049">
        <ele>117.4182129</ele>
        <time>2014-02-23T03:12:09Z</time>
      </trkpt>
      <trkpt lat="15.003141732886434" lon="100.862369416281581">
        <ele>113.092285200000006</ele>
        <time>2014-02-23T03:12:25Z</time>
      </trkpt>
      <trkpt lat="15.003085322678089" lon="100.863017337396741">
        <ele>109.246948200000006</ele>
        <time>2014-02-23T03:12:41Z</time>
      </trkpt>
      <trkpt lat="15.002950960770249" lon="100.863675819709897">
        <ele>107.805053700000002</ele>
        <time>2014-02-23T03:13:01Z</time>
      </trkpt>
      <trkpt lat="15.003022961318493" lon="100.864188289269805">
        <ele>105.401733399999998</ele>
        <time>2014-02-23T03:13:17Z</time>
      </trkpt>
      <trkpt lat="15.003041988238692" lon="100.864214524626732">
        <ele>104.921020499999997</ele>
        <time>2014-02-23T03:13:18Z</time>
      </trkpt>
      <trkpt lat="15.003166124224663" lon="100.864236820489168">
        <ele>103.959716799999995</ele>
        <time>2014-02-23T03:13:23Z</time>
      </trkpt>
      <trkpt lat="15.003597205504775" lon="100.864021740853786">
        <ele>102.517700199999993</ele>
        <time>2014-02-23T03:13:40Z</time>
      </trkpt>
      <trkpt lat="15.003667613491416" lon="100.863984189927578">
        <ele>102.037109400000006</ele>
        <time>2014-02-23T03:13:45Z</time>
      </trkpt>
      <trkpt lat="15.003643976524472" lon="100.864153672009706">
        <ele>102.998290999999995</ele>
        <time>2014-02-23T03:13:53Z</time>
      </trkpt>
      <trkpt lat="15.00299546867609" lon="100.864483499899507">
        <ele>105.882446299999998</ele>
        <time>2014-02-23T03:14:14Z</time>
      </trkpt>
      <trkpt lat="15.002322066575289" lon="100.864691538736224">
        <ele>105.882446299999998</ele>
        <time>2014-02-23T03:14:32Z</time>
      </trkpt>
      <trkpt lat="15.001718988642097" lon="100.864843335002661">
        <ele>105.882446299999998</ele>
        <time>2014-02-23T03:14:47Z</time>
      </trkpt>
      <trkpt lat="15.001004263758659" lon="100.86501432582736">
        <ele>109.246948200000006</ele>
        <time>2014-02-23T03:15:07Z</time>
      </trkpt>
      <trkpt lat="15.000341674312949" lon="100.865140138193965">
        <ele>113.092285200000006</ele>
        <time>2014-02-23T03:15:29Z</time>
      </trkpt>
      <trkpt lat="14.999500717967749" lon="100.865360498428345">
        <ele>113.572997999999998</ele>
        <time>2014-02-23T03:15:53Z</time>
      </trkpt>
      <trkpt lat="14.998654564842582" lon="100.865577170625329">
        <ele>114.053588899999994</ele>
        <time>2014-02-23T03:16:16Z</time>
      </trkpt>
      <trkpt lat="14.998036483302712" lon="100.865721590816975">
        <ele>117.4182129</ele>
        <time>2014-02-23T03:16:35Z</time>
      </trkpt>
      <trkpt lat="14.997344641014934" lon="100.86587673984468">
        <ele>121.263549800000007</ele>
        <time>2014-02-23T03:17:00Z</time>
      </trkpt>
      <trkpt lat="14.996505361050367" lon="100.866093160584569">
        <ele>124.628051799999994</ele>
        <time>2014-02-23T03:17:31Z</time>
      </trkpt>
      <trkpt lat="14.995947880670428" lon="100.866231881082058">
        <ele>127.031372099999999</ele>
        <time>2014-02-23T03:17:55Z</time>
      </trkpt>
      <trkpt lat="14.995480002835393" lon="100.866329865530133">
        <ele>130.395996099999991</ele>
        <time>2014-02-23T03:18:15Z</time>
      </trkpt>
      <trkpt lat="14.995028888806701" lon="100.866366159170866">
        <ele>131.837890600000009</ele>
        <time>2014-02-23T03:18:34Z</time>
      </trkpt>
      <trkpt lat="14.994498314335942" lon="100.86635610088706">
        <ele>133.279907199999997</ele>
        <time>2014-02-23T03:18:57Z</time>
      </trkpt>
      <trkpt lat="14.994576433673501" lon="100.866332463920116">
        <ele>132.318603499999995</ele>
        <time>2014-02-23T03:19:06Z</time>
      </trkpt>
      <trkpt lat="14.994549276307225" lon="100.866495911031961">
        <ele>131.837890600000009</ele>
        <time>2014-02-23T03:19:17Z</time>
      </trkpt>
      <trkpt lat="14.994425140321255" lon="100.866763461381197">
        <ele>135.683105500000011</ele>
        <time>2014-02-23T03:19:34Z</time>
      </trkpt>
      <trkpt lat="14.994386835023761" lon="100.866809813305736">
        <ele>137.125244100000003</ele>
        <time>2014-02-23T03:19:41Z</time>
      </trkpt>
      <trkpt lat="14.994311816990376" lon="100.866892961785197">
        <ele>137.125244100000003</ele>
        <time>2014-02-23T03:19:49Z</time>
      </trkpt>
      <trkpt lat="14.99418692663312" lon="100.866996562108397">
        <ele>137.605835000000013</ele>
        <time>2014-02-23T03:20:05Z</time>
      </trkpt>
      <trkpt lat="14.994134120643139" lon="100.867221280932426">
        <ele>139.528442399999989</ele>
        <time>2014-02-23T03:20:18Z</time>
      </trkpt>
      <trkpt lat="14.994163373485208" lon="100.867435522377491">
        <ele>140.489868199999989</ele>
        <time>2014-02-23T03:20:31Z</time>
      </trkpt>
      <trkpt lat="14.994074860587716" lon="100.86766367778182">
        <ele>142.893066400000009</ele>
        <time>2014-02-23T03:20:45Z</time>
      </trkpt>
      <trkpt lat="14.994013085961342" lon="100.867877416312695">
        <ele>144.335205099999996</ele>
        <time>2014-02-23T03:20:57Z</time>
      </trkpt>
      <trkpt lat="14.993758359923959" lon="100.868227193132043">
        <ele>145.777099600000014</ele>
        <time>2014-02-23T03:21:18Z</time>
      </trkpt>
      <trkpt lat="14.993533305823803" lon="100.868608234450221">
        <ele>148.180419900000004</ele>
        <time>2014-02-23T03:21:38Z</time>
      </trkpt>
      <trkpt lat="14.993369439616799" lon="100.868978463113308">
        <ele>149.141601600000001</ele>
        <time>2014-02-23T03:21:55Z</time>
      </trkpt>
      <trkpt lat="14.993259469047189" lon="100.869286498054862">
        <ele>149.622314499999987</ele>
        <time>2014-02-23T03:22:11Z</time>
      </trkpt>
      <trkpt lat="14.99326198361814" lon="100.869321534410119">
        <ele>149.622314499999987</ele>
        <time>2014-02-23T03:22:23Z</time>
      </trkpt>
      <trkpt lat="14.993253517895937" lon="100.86933670565486">
        <ele>150.583618199999989</ele>
        <time>2014-02-23T03:32:16Z</time>
      </trkpt>
      <trkpt lat="14.993237759917974" lon="100.869351206347346">
        <ele>150.103027300000008</ele>
        <time>2014-02-23T03:32:31Z</time>
      </trkpt>
      <trkpt lat="14.993248488754034" lon="100.869610458612442">
        <ele>149.622314499999987</ele>
        <time>2014-02-23T03:32:47Z</time>
      </trkpt>
      <trkpt lat="14.993591476231813" lon="100.86991086602211">
        <ele>147.699706999999989</ele>
        <time>2014-02-23T03:33:04Z</time>
      </trkpt>
      <trkpt lat="14.993685940280557" lon="100.870024692267179">
        <ele>147.218994100000003</ele>
        <time>2014-02-23T03:33:18Z</time>
      </trkpt>
      <trkpt lat="14.993829522281885" lon="100.870170285925269">
        <ele>145.296386699999999</ele>
        <time>2014-02-23T03:33:34Z</time>
      </trkpt>
      <trkpt lat="14.993989700451493" lon="100.870300121605396">
        <ele>144.335205099999996</ele>
        <time>2014-02-23T03:33:45Z</time>
      </trkpt>
      <trkpt lat="14.994161361828446" lon="100.87024019099772">
        <ele>143.854370100000011</ele>
        <time>2014-02-23T03:33:58Z</time>
      </trkpt>
      <trkpt lat="14.994420278817415" lon="100.87014589458704">
        <ele>143.373657199999997</ele>
        <time>2014-02-23T03:34:12Z</time>
      </trkpt>
      <trkpt lat="14.99447082169354" lon="100.870115803554654">
        <ele>142.893066400000009</ele>
        <time>2014-02-23T03:34:16Z</time>
      </trkpt>
      <trkpt lat="14.99473862349987" lon="100.869966270402074">
        <ele>141.451049799999993</ele>
        <time>2014-02-23T03:34:29Z</time>
      </trkpt>
      <trkpt lat="14.995202478021383" lon="100.869789412245154">
        <ele>139.047851600000001</ele>
        <time>2014-02-23T03:34:45Z</time>
      </trkpt>
      <trkpt lat="14.995639678090811" lon="100.86963040754199">
        <ele>136.163940400000001</ele>
        <time>2014-02-23T03:35:01Z</time>
      </trkpt>
      <trkpt lat="14.996049888432026" lon="100.869452459737659">
        <ele>135.202514600000001</ele>
        <time>2014-02-23T03:35:16Z</time>
      </trkpt>
      <trkpt lat="14.996497398242354" lon="100.869550360366702">
        <ele>130.876709000000005</ele>
        <time>2014-02-23T03:35:32Z</time>
      </trkpt>
      <trkpt lat="14.996633436530828" lon="100.86957173421979">
        <ele>129.434692399999989</ele>
        <time>2014-02-23T03:35:43Z</time>
      </trkpt>
      <trkpt lat="14.996672915294766" lon="100.869591934606433">
        <ele>128.954101600000001</ele>
        <time>2014-02-23T03:35:53Z</time>
      </trkpt>
      <trkpt lat="14.996815659105778" lon="100.869606016203761">
        <ele>127.5119629</ele>
        <time>2014-02-23T03:36:06Z</time>
      </trkpt>
      <trkpt lat="14.997056890279055" lon="100.869721602648497">
        <ele>124.628051799999994</ele>
        <time>2014-02-23T03:36:17Z</time>
      </trkpt>
      <trkpt lat="14.997380180284381" lon="100.869979681447148">
        <ele>121.744140599999994</ele>
        <time>2014-02-23T03:36:30Z</time>
      </trkpt>
      <trkpt lat="14.997681677341461" lon="100.870010107755661">
        <ele>118.860107400000004</ele>
        <time>2014-02-23T03:36:43Z</time>
      </trkpt>
      <trkpt lat="14.997762311249971" lon="100.869935760274529">
        <ele>118.379394500000004</ele>
        <time>2014-02-23T03:36:47Z</time>
      </trkpt>
      <trkpt lat="14.997862139716744" lon="100.869983704760671">
        <ele>117.898803700000002</ele>
        <time>2014-02-23T03:36:56Z</time>
      </trkpt>
      <trkpt lat="14.997945539653301" lon="100.87015519849956">
        <ele>117.898803700000002</ele>
        <time>2014-02-23T03:37:11Z</time>
      </trkpt>
      <trkpt lat="14.997992226853967" lon="100.870214877650142">
        <ele>116.9375</ele>
        <time>2014-02-23T03:37:15Z</time>
      </trkpt>
      <trkpt lat="14.998072441667318" lon="100.870383437722921">
        <ele>116.4567871</ele>
        <time>2014-02-23T03:37:29Z</time>
      </trkpt>
      <trkpt lat="14.998071184381843" lon="100.870391735807061">
        <ele>116.4567871</ele>
        <time>2014-02-23T03:37:30Z</time>
      </trkpt>
      <trkpt lat="14.997979067265987" lon="100.870645539835095">
        <ele>115.495605499999996</ele>
        <time>2014-02-23T03:37:44Z</time>
      </trkpt>
      <trkpt lat="14.997927686199546" lon="100.870764562860131">
        <ele>116.4567871</ele>
        <time>2014-02-23T03:37:54Z</time>
      </trkpt>
      <trkpt lat="14.997794833034277" lon="100.871081817895174">
        <ele>116.4567871</ele>
        <time>2014-02-23T03:38:07Z</time>
      </trkpt>
      <trkpt lat="14.9977539293468" lon="100.871234536170959">
        <ele>115.976196299999998</ele>
        <time>2014-02-23T03:38:14Z</time>
      </trkpt>
      <trkpt lat="14.997917041182518" lon="100.871448777616024">
        <ele>112.611572300000006</ele>
        <time>2014-02-23T03:38:28Z</time>
      </trkpt>
      <trkpt lat="14.998087780550122" lon="100.871471911668777">
        <ele>111.650268600000004</ele>
        <time>2014-02-23T03:38:39Z</time>
      </trkpt>
      <trkpt lat="14.998123236000538" lon="100.871499320492148">
        <ele>111.169555700000004</ele>
        <time>2014-02-23T03:38:49Z</time>
      </trkpt>
      <trkpt lat="14.998200181871653" lon="100.871529579162598">
        <ele>109.246948200000006</ele>
        <time>2014-02-23T03:38:57Z</time>
      </trkpt>
      <trkpt lat="14.998349379748106" lon="100.871575260534883">
        <ele>107.805053700000002</ele>
        <time>2014-02-23T03:39:11Z</time>
      </trkpt>
      <trkpt lat="14.998535541817546" lon="100.871592191979289">
        <ele>106.843627900000001</ele>
        <time>2014-02-23T03:39:26Z</time>
      </trkpt>
      <trkpt lat="14.998704101890326" lon="100.871621025726199">
        <ele>105.401733399999998</ele>
        <time>2014-02-23T03:39:40Z</time>
      </trkpt>
      <trkpt lat="14.99898087233305" lon="100.871646339073777">
        <ele>101.556396500000005</ele>
        <time>2014-02-23T03:39:53Z</time>
      </trkpt>
      <trkpt lat="14.99922570772469" lon="100.871723620221019">
        <ele>100.595092800000003</ele>
        <time>2014-02-23T03:40:05Z</time>
      </trkpt>
      <trkpt lat="14.99946559779346" lon="100.871792435646057">
        <ele>99.153076200000001</ele>
        <time>2014-02-23T03:40:17Z</time>
      </trkpt>
      <trkpt lat="14.999815290793777" lon="100.871895533055067">
        <ele>97.230468799999997</ele>
        <time>2014-02-23T03:40:31Z</time>
      </trkpt>
      <trkpt lat="14.999927440658212" lon="100.871917409822345">
        <ele>96.749877900000001</ele>
        <time>2014-02-23T03:40:40Z</time>
      </trkpt>
      <trkpt lat="15.000241091474891" lon="100.872036768123507">
        <ele>95.788452100000001</ele>
        <time>2014-02-23T03:40:52Z</time>
      </trkpt>
      <trkpt lat="15.000289706513286" lon="100.872070379555225">
        <ele>95.788452100000001</ele>
        <time>2014-02-23T03:40:54Z</time>
      </trkpt>
      <trkpt lat="15.000261291861534" lon="100.872226785868406">
        <ele>96.2692871</ele>
        <time>2014-02-23T03:40:59Z</time>
      </trkpt>
      <trkpt lat="15.000144196674228" lon="100.872432393953204">
        <ele>96.2692871</ele>
        <time>2014-02-23T03:41:06Z</time>
      </trkpt>
      <trkpt lat="14.999676737934351" lon="100.87266867980361">
        <ele>96.2692871</ele>
        <time>2014-02-23T03:41:21Z</time>
      </trkpt>
      <trkpt lat="14.999467106536031" lon="100.872639678418636">
        <ele>96.2692871</ele>
        <time>2014-02-23T03:41:27Z</time>
      </trkpt>
      <trkpt lat="14.999190336093307" lon="100.872744703665376">
        <ele>97.711181600000003</ele>
        <time>2014-02-23T03:41:36Z</time>
      </trkpt>
      <trkpt lat="14.9990991409868" lon="100.872836569324136">
        <ele>97.711181600000003</ele>
        <time>2014-02-23T03:41:42Z</time>
      </trkpt>
      <trkpt lat="14.998899064958096" lon="100.873062461614609">
        <ele>97.711181600000003</ele>
        <time>2014-02-23T03:41:55Z</time>
      </trkpt>
      <trkpt lat="14.998709885403514" lon="100.873349625617266">
        <ele>98.672485399999999</ele>
        <time>2014-02-23T03:42:04Z</time>
      </trkpt>
      <trkpt lat="14.998499918729067" lon="100.873736869543791">
        <ele>98.672485399999999</ele>
        <time>2014-02-23T03:42:16Z</time>
      </trkpt>
      <trkpt lat="14.998559933155775" lon="100.874110870063305">
        <ele>101.556396500000005</ele>
        <time>2014-02-23T03:42:30Z</time>
      </trkpt>
      <trkpt lat="14.998698486015201" lon="100.874404991045594">
        <ele>103.959716799999995</ele>
        <time>2014-02-23T03:42:48Z</time>
      </trkpt>
      <trkpt lat="14.998840307816863" lon="100.874653933569789">
        <ele>104.440429699999996</ele>
        <time>2014-02-23T03:43:05Z</time>
      </trkpt>
      <trkpt lat="14.999048179015517" lon="100.874889884144068">
        <ele>104.440429699999996</ele>
        <time>2014-02-23T03:43:22Z</time>
      </trkpt>
      <trkpt lat="14.999285219237208" lon="100.87512063793838">
        <ele>106.3630371</ele>
        <time>2014-02-23T03:43:38Z</time>
      </trkpt>
      <trkpt lat="14.999464675784111" lon="100.875347033143044">
        <ele>107.805053700000002</ele>
        <time>2014-02-23T03:43:48Z</time>
      </trkpt>
      <trkpt lat="14.999692915007472" lon="100.875394139438868">
        <ele>107.324340800000002</ele>
        <time>2014-02-23T03:44:01Z</time>
      </trkpt>
      <trkpt lat="14.999723928049207" lon="100.875398833304644">
        <ele>107.324340800000002</ele>
        <time>2014-02-23T03:44:08Z</time>
      </trkpt>
      <trkpt lat="14.999971613287926" lon="100.875304788351059">
        <ele>105.401733399999998</ele>
        <time>2014-02-23T03:44:21Z</time>
      </trkpt>
      <trkpt lat="15.000198176130652" lon="100.875181071460247">
        <ele>103.479003899999995</ele>
        <time>2014-02-23T03:44:33Z</time>
      </trkpt>
      <trkpt lat="15.000483663752675" lon="100.875088619068265">
        <ele>102.037109400000006</ele>
        <time>2014-02-23T03:44:44Z</time>
      </trkpt>
      <trkpt lat="15.000572092831135" lon="100.874982504174113">
        <ele>101.075683600000005</ele>
        <time>2014-02-23T03:44:50Z</time>
      </trkpt>
      <trkpt lat="15.000908626243472" lon="100.874506328254938">
        <ele>102.998290999999995</ele>
        <time>2014-02-23T03:45:10Z</time>
      </trkpt>
      <trkpt lat="15.001262510195374" lon="100.874083880335093">
        <ele>101.556396500000005</ele>
        <time>2014-02-23T03:45:26Z</time>
      </trkpt>
      <trkpt lat="15.001194030046463" lon="100.873779114335775">
        <ele>98.672485399999999</ele>
        <time>2014-02-23T03:45:38Z</time>
      </trkpt>
      <trkpt lat="15.000986410304904" lon="100.873408131301403">
        <ele>98.672485399999999</ele>
        <time>2014-02-23T03:45:55Z</time>
      </trkpt>
      <trkpt lat="15.00125790014863" lon="100.872971937060356">
        <ele>101.556396500000005</ele>
        <time>2014-02-23T03:46:13Z</time>
      </trkpt>
      <trkpt lat="15.001731058582664" lon="100.872553177177906">
        <ele>102.998290999999995</ele>
        <time>2014-02-23T03:46:31Z</time>
      </trkpt>
      <trkpt lat="15.002382835373282" lon="100.872579077258706">
        <ele>98.191894500000004</ele>
        <time>2014-02-23T03:46:47Z</time>
      </trkpt>
      <trkpt lat="15.00292363576591" lon="100.872684018686414">
        <ele>94.346557599999997</ele>
        <time>2014-02-23T03:47:00Z</time>
      </trkpt>
      <trkpt lat="15.003066211938858" lon="100.872891219332814">
        <ele>93.385131799999996</ele>
        <time>2014-02-23T03:47:11Z</time>
      </trkpt>
      <trkpt lat="15.003228820860386" lon="100.872768172994256">
        <ele>93.385131799999996</ele>
        <time>2014-02-23T03:47:19Z</time>
      </trkpt>
      <trkpt lat="15.003822259604931" lon="100.872661303728819">
        <ele>90.981933600000005</ele>
        <time>2014-02-23T03:47:37Z</time>
      </trkpt>
      <trkpt lat="15.004121661186218" lon="100.872396184131503">
        <ele>90.501342800000003</ele>
        <time>2014-02-23T03:47:48Z</time>
      </trkpt>
      <trkpt lat="15.004781233146787" lon="100.872454019263387">
        <ele>90.020629900000003</ele>
        <time>2014-02-23T03:48:06Z</time>
      </trkpt>
      <trkpt lat="15.004996228963137" lon="100.872441027313471">
        <ele>90.501342800000003</ele>
        <time>2014-02-23T03:48:12Z</time>
      </trkpt>
      <trkpt lat="15.005175685510039" lon="100.872658705338836">
        <ele>89.539917000000003</ele>
        <time>2014-02-23T03:48:20Z</time>
      </trkpt>
      <trkpt lat="15.0056785158813" lon="100.872791977599263">
        <ele>90.501342800000003</ele>
        <time>2014-02-23T03:48:36Z</time>
      </trkpt>
      <trkpt lat="15.006227279081941" lon="100.872885184362531">
        <ele>92.904540999999995</ele>
        <time>2014-02-23T03:48:53Z</time>
      </trkpt>
      <trkpt lat="15.006421487778425" lon="100.872570108622313">
        <ele>92.904540999999995</ele>
        <time>2014-02-23T03:49:04Z</time>
      </trkpt>
      <trkpt lat="15.007019536569715" lon="100.871990835294127">
        <ele>91.462524400000007</ele>
        <time>2014-02-23T03:49:24Z</time>
      </trkpt>
      <trkpt lat="15.00776250846684" lon="100.871385326609015">
        <ele>90.020629900000003</ele>
        <time>2014-02-23T03:49:45Z</time>
      </trkpt>
      <trkpt lat="15.007900977507234" lon="100.871011409908533">
        <ele>89.539917000000003</ele>
        <time>2014-02-23T03:49:56Z</time>
      </trkpt>
      <trkpt lat="15.008293585851789" lon="100.870906803756952">
        <ele>89.059326200000001</ele>
        <time>2014-02-23T03:50:09Z</time>
      </trkpt>
      <trkpt lat="15.008650068193674" lon="100.870568426325917">
        <ele>87.6171875</ele>
        <time>2014-02-23T03:50:26Z</time>
      </trkpt>
      <trkpt lat="15.00867236405611" lon="100.870561134070158">
        <ele>89.059326200000001</ele>
        <time>2014-02-23T03:50:40Z</time>
      </trkpt>
      <trkpt lat="15.008721062913537" lon="100.87037849240005">
        <ele>91.462524400000007</ele>
        <time>2014-02-23T03:50:57Z</time>
      </trkpt>
      <trkpt lat="15.0088213942945" lon="100.870239185169339">
        <ele>90.981933600000005</ele>
        <time>2014-02-23T03:51:02Z</time>
      </trkpt>
      <trkpt lat="15.009477362036705" lon="100.869837775826454">
        <ele>91.462524400000007</ele>
        <time>2014-02-23T03:51:19Z</time>
      </trkpt>
      <trkpt lat="15.009688837453723" lon="100.86982780136168">
        <ele>91.462524400000007</ele>
        <time>2014-02-23T03:51:30Z</time>
      </trkpt>
      <trkpt lat="15.009673917666078" lon="100.869818916544318">
        <ele>91.462524400000007</ele>
        <time>2014-02-23T03:51:33Z</time>
      </trkpt>
      <trkpt lat="15.009445762261748" lon="100.869596377015114">
        <ele>89.539917000000003</ele>
        <time>2014-02-23T03:51:48Z</time>
      </trkpt>
      <trkpt lat="15.008986769244075" lon="100.869126236066222">
        <ele>88.578735399999999</ele>
        <time>2014-02-23T03:52:07Z</time>
      </trkpt>
      <trkpt lat="15.008630538359284" lon="100.868782661855221">
        <ele>88.098022499999999</ele>
        <time>2014-02-23T03:52:21Z</time>
      </trkpt>
      <trkpt lat="15.008578570559621" lon="100.868748296052217">
        <ele>88.098022499999999</ele>
        <time>2014-02-23T03:52:23Z</time>
      </trkpt>
      <trkpt lat="15.008571110665798" lon="100.868579735979438">
        <ele>88.098022499999999</ele>
        <time>2014-02-23T03:52:29Z</time>
      </trkpt>
      <trkpt lat="15.008636740967631" lon="100.868376977741718">
        <ele>87.6171875</ele>
        <time>2014-02-23T03:52:35Z</time>
      </trkpt>
      <trkpt lat="15.008846540004015" lon="100.867697037756443">
        <ele>86.656005899999997</ele>
        <time>2014-02-23T03:52:53Z</time>
      </trkpt>
      <trkpt lat="15.00890881754458" lon="100.86721851490438">
        <ele>86.175292999999996</ele>
        <time>2014-02-23T03:53:06Z</time>
      </trkpt>
      <trkpt lat="15.008696587756276" lon="100.867063282057643">
        <ele>86.175292999999996</ele>
        <time>2014-02-23T03:53:14Z</time>
      </trkpt>
      <trkpt lat="15.008720308542252" lon="100.866956328973174">
        <ele>86.175292999999996</ele>
        <time>2014-02-23T03:53:19Z</time>
      </trkpt>
      <trkpt lat="15.009060194715858" lon="100.866365991532803">
        <ele>86.656005899999997</ele>
        <time>2014-02-23T03:53:37Z</time>
      </trkpt>
      <trkpt lat="15.009105373173952" lon="100.865989476442337">
        <ele>85.694580099999996</ele>
        <time>2014-02-23T03:53:46Z</time>
      </trkpt>
      <trkpt lat="15.009350460022688" lon="100.865317415446043">
        <ele>84.733398399999999</ele>
        <time>2014-02-23T03:54:04Z</time>
      </trkpt>
      <trkpt lat="15.009722784161568" lon="100.864874264225364">
        <ele>83.291381799999996</ele>
        <time>2014-02-23T03:54:19Z</time>
      </trkpt>
      <trkpt lat="15.010270625352859" lon="100.864471178501844">
        <ele>82.810790999999995</ele>
        <time>2014-02-23T03:54:36Z</time>
      </trkpt>
      <trkpt lat="15.010848892852664" lon="100.864226678386331">
        <ele>82.330078099999994</ele>
        <time>2014-02-23T03:54:52Z</time>
      </trkpt>
      <trkpt lat="15.011272262781858" lon="100.864156689494848">
        <ele>81.849365199999994</ele>
        <time>2014-02-23T03:55:03Z</time>
      </trkpt>
      <trkpt lat="15.011870982125401" lon="100.864375373348594">
        <ele>82.810790999999995</ele>
        <time>2014-02-23T03:55:18Z</time>
      </trkpt>
      <trkpt lat="15.012151692062616" lon="100.864326423034072">
        <ele>82.810790999999995</ele>
        <time>2014-02-23T03:55:25Z</time>
      </trkpt>
      <trkpt lat="15.012618899345398" lon="100.864003216847777">
        <ele>83.291381799999996</ele>
        <time>2014-02-23T03:55:40Z</time>
      </trkpt>
      <trkpt lat="15.012670615687966" lon="100.863942699506879">
        <ele>83.291381799999996</ele>
        <time>2014-02-23T03:55:42Z</time>
      </trkpt>
      <trkpt lat="15.012902040034533" lon="100.863280277699232">
        <ele>82.810790999999995</ele>
        <time>2014-02-23T03:55:58Z</time>
      </trkpt>
      <trkpt lat="15.013247458264232" lon="100.862645683810115">
        <ele>83.771972700000006</ele>
        <time>2014-02-23T03:56:16Z</time>
      </trkpt>
      <trkpt lat="15.013583404943347" lon="100.862469496205449">
        <ele>83.291381799999996</ele>
        <time>2014-02-23T03:56:26Z</time>
      </trkpt>
      <trkpt lat="15.014450764283538" lon="100.861948812380433">
        <ele>81.849365199999994</ele>
        <time>2014-02-23T03:56:49Z</time>
      </trkpt>
      <trkpt lat="15.015101786702871" lon="100.86170582100749">
        <ele>80.888183600000005</ele>
        <time>2014-02-23T03:57:08Z</time>
      </trkpt>
      <trkpt lat="15.015530437231064" lon="100.861300639808178">
        <ele>80.407470700000005</ele>
        <time>2014-02-23T03:57:24Z</time>
      </trkpt>
      <trkpt lat="15.015972163528204" lon="100.861221011728048">
        <ele>81.368774400000007</ele>
        <time>2014-02-23T03:57:37Z</time>
      </trkpt>
      <trkpt lat="15.016265027225018" lon="100.861453609541059">
        <ele>80.888183600000005</ele>
        <time>2014-02-23T03:57:50Z</time>
      </trkpt>
      <trkpt lat="15.016275085508823" lon="100.861482778564095">
        <ele>82.330078099999994</ele>
        <time>2014-02-23T03:58:01Z</time>
      </trkpt>
      <trkpt lat="15.016325628384948" lon="100.861478336155415">
        <ele>85.213989299999994</ele>
        <time>2014-02-23T04:01:37Z</time>
      </trkpt>
      <trkpt lat="15.016371561214328" lon="100.861470038071275">
        <ele>84.252685499999998</ele>
        <time>2014-02-23T04:01:41Z</time>
      </trkpt>
      <trkpt lat="15.016417829319835" lon="100.86144195869565">
        <ele>84.252685499999998</ele>
        <time>2014-02-23T04:01:44Z</time>
      </trkpt>
      <trkpt lat="15.016491170972586" lon="100.86101146414876">
        <ele>83.291381799999996</ele>
        <time>2014-02-23T04:01:57Z</time>
      </trkpt>
      <trkpt lat="15.016872463747859" lon="100.860965363681316">
        <ele>82.330078099999994</ele>
        <time>2014-02-23T04:02:07Z</time>
      </trkpt>
      <trkpt lat="15.017336905002594" lon="100.861002495512366">
        <ele>82.330078099999994</ele>
        <time>2014-02-23T04:02:21Z</time>
      </trkpt>
      <trkpt lat="15.017765136435628" lon="100.86102026514709">
        <ele>82.810790999999995</ele>
        <time>2014-02-23T04:02:35Z</time>
      </trkpt>
      <trkpt lat="15.018257740885019" lon="100.861063096672297">
        <ele>82.810790999999995</ele>
        <time>2014-02-23T04:02:51Z</time>
      </trkpt>
      <trkpt lat="15.018723858520389" lon="100.860984893515706">
        <ele>82.330078099999994</ele>
        <time>2014-02-23T04:03:05Z</time>
      </trkpt>
      <trkpt lat="15.019019320607185" lon="100.86060443893075">
        <ele>81.849365199999994</ele>
        <time>2014-02-23T04:03:19Z</time>
      </trkpt>
      <trkpt lat="15.019217720255256" lon="100.860233958810568">
        <ele>80.888183600000005</ele>
        <time>2014-02-23T04:03:33Z</time>
      </trkpt>
      <trkpt lat="15.019178995862603" lon="100.860066572204232">
        <ele>80.888183600000005</ele>
        <time>2014-02-23T04:03:39Z</time>
      </trkpt>
      <trkpt lat="15.019276477396488" lon="100.859958864748478">
        <ele>79.446044900000004</ele>
        <time>2014-02-23T04:03:43Z</time>
      </trkpt>
      <trkpt lat="15.019578812643886" lon="100.859754011034966">
        <ele>81.368774400000007</ele>
        <time>2014-02-23T04:03:52Z</time>
      </trkpt>
      <trkpt lat="15.0202601775527" lon="100.859271632507443">
        <ele>80.407470700000005</ele>
        <time>2014-02-23T04:04:10Z</time>
      </trkpt>
      <trkpt lat="15.020439215004444" lon="100.859145820140839">
        <ele>79.926635700000006</ele>
        <time>2014-02-23T04:04:15Z</time>
      </trkpt>
      <trkpt lat="15.020557483658195" lon="100.85880970582366">
        <ele>79.926635700000006</ele>
        <time>2014-02-23T04:04:24Z</time>
      </trkpt>
      <trkpt lat="15.020713889971375" lon="100.858163293451071">
        <ele>80.888183600000005</ele>
        <time>2014-02-23T04:04:41Z</time>
      </trkpt>
      <trkpt lat="15.02063593827188" lon="100.857625175267458">
        <ele>81.368774400000007</ele>
        <time>2014-02-23T04:04:53Z</time>
      </trkpt>
      <trkpt lat="15.020547341555357" lon="100.857332227751613">
        <ele>80.407470700000005</ele>
        <time>2014-02-23T04:04:59Z</time>
      </trkpt>
      <trkpt lat="15.020433180034161" lon="100.85692553780973">
        <ele>80.407470700000005</ele>
        <time>2014-02-23T04:05:09Z</time>
      </trkpt>
      <trkpt lat="15.020271996036172" lon="100.856862002983689">
        <ele>93.870000000000005</ele>
        <time>2014-02-22T09:51:59Z</time>
      </trkpt>
      <trkpt lat="15.021574962884188" lon="100.855718962848186">
        <ele>92.420000000000002</ele>
        <time>2014-02-22T09:53:48Z</time>
      </trkpt>
      <trkpt lat="15.021641012281179" lon="100.855402965098619">
        <ele>92.420000000000002</ele>
        <time>2014-02-22T09:53:54Z</time>
      </trkpt>
      <trkpt lat="15.022566039115191" lon="100.85387603379786">
        <ele>90.5</ele>
        <time>2014-02-22T09:54:24Z</time>
      </trkpt>
      <trkpt lat="15.023197028785944" lon="100.853803027421236">
        <ele>90.019999999999996</ele>
        <time>2014-02-22T09:54:35Z</time>
      </trkpt>
      <trkpt lat="15.023427028208971" lon="100.853616027161479">
        <ele>89.540000000000006</ele>
        <time>2014-02-22T09:54:40Z</time>
      </trkpt>
      <trkpt lat="15.023083034902811" lon="100.851141018792987">
        <ele>91.459999999999994</ele>
        <time>2014-02-22T09:55:36Z</time>
      </trkpt>
      <trkpt lat="15.023730034008622" lon="100.849830005317926">
        <ele>93.870000000000005</ele>
        <time>2014-02-22T09:56:17Z</time>
      </trkpt>
      <trkpt lat="15.024088025093079" lon="100.84930001758039">
        <ele>94.349999999999994</ele>
        <time>2014-02-22T09:57:03Z</time>
      </trkpt>
      <trkpt lat="15.024919006973505" lon="100.848091011866927">
        <ele>90.980000000000004</ele>
        <time>2014-02-22T09:57:58Z</time>
      </trkpt>
      <trkpt lat="15.025864988565445" lon="100.848488984629512">
        <ele>90.019999999999996</ele>
        <time>2014-02-22T09:58:33Z</time>
      </trkpt>
      <trkpt lat="15.026119966059923" lon="100.848841024562716">
        <ele>89.540000000000006</ele>
        <time>2014-02-22T09:58:46Z</time>
      </trkpt>
      <trkpt lat="15.026457002386451" lon="100.849039005115628">
        <ele>89.060000000000002</ele>
        <time>2014-02-22T09:58:56Z</time>
      </trkpt>
      <trkpt lat="15.026702005416155" lon="100.849133972078562">
        <ele>87.620000000000005</ele>
        <time>2014-02-22T09:59:04Z</time>
      </trkpt>
      <trkpt lat="15.026973998174071" lon="100.849174037575722">
        <ele>87.620000000000005</ele>
        <time>2014-02-22T09:59:16Z</time>
      </trkpt>
      <trkpt lat="15.027166027575731" lon="100.848944960162044">
        <ele>88.579999999999998</ele>
        <time>2014-02-22T09:59:25Z</time>
      </trkpt>
      <trkpt lat="15.027343975380063" lon="100.848810011520982">
        <ele>88.579999999999998</ele>
        <time>2014-02-22T09:59:31Z</time>
      </trkpt>
      <trkpt lat="15.027546985074878" lon="100.848983014002442">
        <ele>88.579999999999998</ele>
        <time>2014-02-22T09:59:38Z</time>
      </trkpt>
      <trkpt lat="15.028077978640795" lon="100.851016966626048">
        <ele>87.140000000000001</ele>
        <time>2014-02-22T10:00:30Z</time>
      </trkpt>
      <trkpt lat="15.028271013870835" lon="100.851264987140894">
        <ele>87.140000000000001</ele>
        <time>2014-02-22T10:00:41Z</time>
      </trkpt>
      <trkpt lat="15.028093988075852" lon="100.852151960134506">
        <ele>87.140000000000001</ele>
        <time>2014-02-22T10:01:05Z</time>
      </trkpt>
      <trkpt lat="15.02810999751091" lon="100.853076986968517">
        <ele>86.180000000000007</ele>
        <time>2014-02-22T10:01:28Z</time>
      </trkpt>
      <trkpt lat="15.028488021343946" lon="100.853133983910084">
        <ele>85.689999999999998</ele>
        <time>2014-02-22T10:01:38Z</time>
      </trkpt>
      <trkpt lat="15.028977021574974" lon="100.853547966107726">
        <ele>86.180000000000007</ele>
        <time>2014-02-22T10:01:55Z</time>
      </trkpt>
      <trkpt lat="15.029338030144572" lon="100.85359700024128">
        <ele>86.180000000000007</ele>
        <time>2014-02-22T10:02:07Z</time>
      </trkpt>
      <trkpt lat="15.029633995145559" lon="100.85340497083962">
        <ele>87.620000000000005</ele>
        <time>2014-02-22T10:02:17Z</time>
      </trkpt>
      <trkpt lat="15.030506970360875" lon="100.852891998365521">
        <ele>88.099999999999994</ele>
        <time>2014-02-22T10:02:45Z</time>
      </trkpt>
      <trkpt lat="15.031275004148483" lon="100.852648001164198">
        <ele>86.659999999999997</ele>
        <time>2014-02-22T10:03:05Z</time>
      </trkpt>
      <trkpt lat="15.03204002045095" lon="100.85177100263536">
        <ele>85.689999999999998</ele>
        <time>2014-02-22T10:03:31Z</time>
      </trkpt>
      <trkpt lat="15.032264990732074" lon="100.851762033998966">
        <ele>84.25</ele>
        <time>2014-02-22T10:03:36Z</time>
      </trkpt>
      <trkpt lat="15.034974021837115" lon="100.852913036942482">
        <ele>88.099999999999994</ele>
        <time>2014-02-22T10:04:55Z</time>
      </trkpt>
      <trkpt lat="15.035421028733253" lon="100.852344995364547">
        <ele>86.180000000000007</ele>
        <time>2014-02-22T10:05:14Z</time>
      </trkpt>
      <trkpt lat="15.035428991541266" lon="100.851952973753214">
        <ele>85.689999999999998</ele>
        <time>2014-02-22T10:05:27Z</time>
      </trkpt>
      <trkpt lat="15.034320987761021" lon="100.850818986073136">
        <ele>84.25</ele>
        <time>2014-02-22T10:06:00Z</time>
      </trkpt>
      <trkpt lat="15.034067016094923" lon="100.850141979753971">
        <ele>84.25</ele>
        <time>2014-02-22T10:06:14Z</time>
      </trkpt>
      <trkpt lat="15.034076990559697" lon="100.850047012791038">
        <ele>83.769999999999996</ele>
        <time>2014-02-22T10:06:16Z</time>
      </trkpt>
      <trkpt lat="15.034245969727635" lon="100.849629007279873">
        <ele>83.769999999999996</ele>
        <time>2014-02-22T10:06:24Z</time>
      </trkpt>
      <trkpt lat="15.034863967448473" lon="100.848949989303946">
        <ele>83.769999999999996</ele>
        <time>2014-02-22T10:06:40Z</time>
      </trkpt>
      <trkpt lat="15.035784970968962" lon="100.84831103682518">
        <ele>82.810000000000002</ele>
        <time>2014-02-22T10:06:58Z</time>
      </trkpt>
      <trkpt lat="15.03633800894022" lon="100.847650039941072">
        <ele>82.810000000000002</ele>
        <time>2014-02-22T10:07:12Z</time>
      </trkpt>
      <trkpt lat="15.036414032801986" lon="100.846926011145115">
        <ele>82.810000000000002</ele>
        <time>2014-02-22T10:07:24Z</time>
      </trkpt>
      <trkpt lat="15.036226026713848" lon="100.846631973981857">
        <ele>82.810000000000002</ele>
        <time>2014-02-22T10:07:30Z</time>
      </trkpt>
      <trkpt lat="15.035726968199015" lon="100.846296027302742">
        <ele>82.810000000000002</ele>
        <time>2014-02-22T10:07:41Z</time>
      </trkpt>
      <trkpt lat="15.035012997686863" lon="100.845694039016962">
        <ele>82.329999999999998</ele>
        <time>2014-02-22T10:07:57Z</time>
      </trkpt>
      <trkpt lat="15.033898036926985" lon="100.845114011317492">
        <ele>84.25</ele>
        <time>2014-02-22T10:08:22Z</time>
      </trkpt>
      <trkpt lat="15.033858977258205" lon="100.845082998275757">
        <ele>84.25</ele>
        <time>2014-02-22T10:08:23Z</time>
      </trkpt>
      <trkpt lat="15.033634006977081" lon="100.844708997756243">
        <ele>84.730000000000004</ele>
        <time>2014-02-22T10:08:34Z</time>
      </trkpt>
      <trkpt lat="15.032259961590171" lon="100.845404025167227">
        <ele>84.730000000000004</ele>
        <time>2014-02-22T10:09:04Z</time>
      </trkpt>
      <trkpt lat="15.031336024403572" lon="100.846586963161826">
        <ele>83.769999999999996</ele>
        <time>2014-02-22T10:09:29Z</time>
      </trkpt>
      <trkpt lat="15.030930005013943" lon="100.846746973693371">
        <ele>84.730000000000004</ele>
        <time>2014-02-22T10:09:37Z</time>
      </trkpt>
      <trkpt lat="15.02310499548912" lon="100.844944026321173">
        <ele>93.870000000000005</ele>
        <time>2014-02-22T10:12:27Z</time>
      </trkpt>
      <trkpt lat="15.02093399874866" lon="100.844622999429703">
        <ele>98.189999999999998</ele>
        <time>2014-02-22T10:13:27Z</time>
      </trkpt>
      <trkpt lat="15.020144004374743" lon="100.844091000035405">
        <ele>102.040000000000006</ele>
        <time>2014-02-22T10:13:57Z</time>
      </trkpt>
      <trkpt lat="15.018644984811544" lon="100.842783004045486">
        <ele>109.25</ele>
        <time>2014-02-22T10:15:00Z</time>
      </trkpt>
      <trkpt lat="15.017874771729112" lon="100.842735059559345">
        <ele>102.998290999999995</ele>
        <time>2014-02-23T04:15:12Z</time>
      </trkpt>
      <trkpt lat="15.018012737855315" lon="100.842255530878901">
        <ele>105.401733399999998</ele>
        <time>2014-02-23T04:15:30Z</time>
      </trkpt>
      <trkpt lat="15.018129665404558" lon="100.841707941144705">
        <ele>107.324340800000002</ele>
        <time>2014-02-23T04:15:47Z</time>
      </trkpt>
      <trkpt lat="15.017992537468672" lon="100.841090362519026">
        <ele>110.208252000000002</ele>
        <time>2014-02-23T04:16:08Z</time>
      </trkpt>
      <trkpt lat="15.017754323780537" lon="100.840633464977145">
        <ele>113.092285200000006</ele>
        <time>2014-02-23T04:16:26Z</time>
      </trkpt>
      <trkpt lat="15.017354171723127" lon="100.840314365923405">
        <ele>115.495605499999996</ele>
        <time>2014-02-23T04:16:44Z</time>
      </trkpt>
      <trkpt lat="15.016798786818981" lon="100.839990070089698">
        <ele>118.860107400000004</ele>
        <time>2014-02-23T04:17:08Z</time>
      </trkpt>
      <trkpt lat="15.016191098839045" lon="100.839846068993211">
        <ele>118.379394500000004</ele>
        <time>2014-02-23T04:17:33Z</time>
      </trkpt>
      <trkpt lat="15.015779379755259" lon="100.839852187782526">
        <ele>122.224731399999996</ele>
        <time>2014-02-23T04:17:53Z</time>
      </trkpt>
      <trkpt lat="15.015369588509202" lon="100.839978838339448">
        <ele>126.069946299999998</ele>
        <time>2014-02-23T04:18:12Z</time>
      </trkpt>
      <trkpt lat="15.014869188889861" lon="100.840171705931425">
        <ele>129.915283200000005</ele>
        <time>2014-02-23T04:18:34Z</time>
      </trkpt>
      <trkpt lat="15.014498038217425" lon="100.840534139424562">
        <ele>130.876709000000005</ele>
        <time>2014-02-23T04:18:50Z</time>
      </trkpt>
      <trkpt lat="15.014113476499915" lon="100.8411003369838">
        <ele>128.473388699999987</ele>
        <time>2014-02-23T04:19:04Z</time>
      </trkpt>
      <trkpt lat="15.01368029974401" lon="100.841542817652225">
        <ele>128.473388699999987</ele>
        <time>2014-02-23T04:19:16Z</time>
      </trkpt>
      <trkpt lat="15.013098930940032" lon="100.842424258589745">
        <ele>126.069946299999998</ele>
        <time>2014-02-23T04:19:33Z</time>
      </trkpt>
      <trkpt lat="15.012427205219865" lon="100.843469398096204">
        <ele>123.666747999999998</ele>
        <time>2014-02-23T04:19:51Z</time>
      </trkpt>
      <trkpt lat="15.012086816132069" lon="100.844764737412333">
        <ele>119.821411100000006</ele>
        <time>2014-02-23T04:20:10Z</time>
      </trkpt>
      <trkpt lat="15.012064520269632" lon="100.844828858971596">
        <ele>119.821411100000006</ele>
        <time>2014-02-23T04:20:11Z</time>
      </trkpt>
      <trkpt lat="15.011396314948797" lon="100.845251474529505">
        <ele>120.302124000000006</ele>
        <time>2014-02-23T04:20:26Z</time>
      </trkpt>
      <trkpt lat="15.011061541736126" lon="100.845438726246357">
        <ele>120.782836900000007</ele>
        <time>2014-02-23T04:20:35Z</time>
      </trkpt>
      <trkpt lat="15.010327622294426" lon="100.84606871008873">
        <ele>121.263549800000007</ele>
        <time>2014-02-23T04:20:55Z</time>
      </trkpt>
      <trkpt lat="15.0095743406564" lon="100.84678016602993">
        <ele>120.302124000000006</ele>
        <time>2014-02-23T04:21:14Z</time>
      </trkpt>
      <trkpt lat="15.009072599932551" lon="100.847241673618555">
        <ele>115.014892599999996</ele>
        <time>2014-02-23T04:21:24Z</time>
      </trkpt>
      <trkpt lat="15.008906135335565" lon="100.847430434077978">
        <ele>117.4182129</ele>
        <time>2014-02-23T04:21:32Z</time>
      </trkpt>
      <trkpt lat="15.008895574137568" lon="100.847452478483319">
        <ele>117.898803700000002</ele>
        <time>2014-02-23T04:21:35Z</time>
      </trkpt>
      <trkpt lat="15.008877385407686" lon="100.847506122663617">
        <ele>118.860107400000004</ele>
        <time>2014-02-23T04:21:39Z</time>
      </trkpt>
      <trkpt lat="15.008800271898508" lon="100.847802674397826">
        <ele>122.224731399999996</ele>
        <time>2014-02-23T04:21:56Z</time>
      </trkpt>
      <trkpt lat="15.008731875568628" lon="100.848045917227864">
        <ele>123.666747999999998</ele>
        <time>2014-02-23T04:22:09Z</time>
      </trkpt>
      <trkpt lat="15.008683009073138" lon="100.848038122057915">
        <ele>124.147338899999994</ele>
        <time>2014-02-23T04:22:13Z</time>
      </trkpt>
      <trkpt lat="15.008407076820731" lon="100.847774427384138">
        <ele>124.147338899999994</ele>
        <time>2014-02-23T04:22:28Z</time>
      </trkpt>
      <trkpt lat="15.008355025202036" lon="100.8477574121207">
        <ele>124.628051799999994</ele>
        <time>2014-02-23T04:22:30Z</time>
      </trkpt>
      <trkpt lat="15.008252263069153" lon="100.847808877006173">
        <ele>125.108764600000001</ele>
        <time>2014-02-23T04:22:34Z</time>
      </trkpt>
      <trkpt lat="15.00781137496233" lon="100.848018676042557">
        <ele>127.992553700000002</ele>
        <time>2014-02-23T04:22:53Z</time>
      </trkpt>
      <trkpt lat="15.007511638104916" lon="100.848111631348729">
        <ele>129.434692399999989</ele>
        <time>2014-02-23T04:23:10Z</time>
      </trkpt>
      <trkpt lat="15.007463190704584" lon="100.848019262775779">
        <ele>130.876709000000005</ele>
        <time>2014-02-23T04:23:25Z</time>
      </trkpt>
      <trkpt lat="15.00745858065784" lon="100.848010126501322">
        <ele>124.628051799999994</ele>
        <time>2014-02-23T04:23:39Z</time>
      </trkpt>
    </trkseg>
  </trk>

</gpx>
